Time;durP1;ratioP1;P1;durP2;ratioP2;P2;SDS_P1;SDS_P2;PMS_P1;PMS_P2;Temp;Humidity;BMP_temperature;BMP_pressure;BME280_temperature;BME280_humidity;BME280_pressure;Samples;Min_cycle;Max_cycle;Signal;HPM_P1;HPM_P2
2022/10/15 00:01:26;;;;;;;45.70;32.80;;;;;;;10.09;79.84;100343.17;104816;1303;93447;-80
2022/10/15 00:03:54;;;;;;;44.90;32.80;;;;;;;10.07;79.79;100342.16;104809;1293;93144;-80
2022/10/15 00:06:21;;;;;;;42.50;29.90;;;;;;;10.06;79.82;100338.79;104730;1293;141528;-80
2022/10/15 00:08:49;;;;;;;43.60;31.70;;;;;;;10.05;79.65;100339.70;104867;1295;98599;-80
2022/10/15 00:11:20;;;;;;;44.80;30.80;;;;;;;10.05;79.59;100339.19;104723;1290;140179;-83
2022/10/15 00:13:49;;;;;;;42.60;31.00;;;;;;;10.03;79.69;100341.88;104872;1288;94310;-82
2022/10/15 00:16:21;;;;;;;45.30;32.80;;;;;;;10.03;79.64;100339.75;104831;1296;93160;-82
2022/10/15 00:18:49;;;;;;;45.80;31.90;;;;;;;10.03;79.57;100340.48;104750;1287;140066;-82
2022/10/15 00:21:19;;;;;;;45.70;33.40;;;;;;;10.00;79.47;100339.66;104884;1280;97633;-82
2022/10/15 00:23:47;;;;;;;46.40;32.10;;;;;;;9.96;79.52;100333.54;104752;1295;140191;-82
2022/10/15 00:26:18;;;;;;;48.80;32.80;;;;;;;9.97;79.61;100335.66;104878;1293;93147;-82
2022/10/15 00:28:49;;;;;;;45.10;32.90;;;;;;;9.94;79.50;100334.67;104622;1284;140215;-83
2022/10/15 00:31:21;;;;;;;46.60;32.70;;;;;;;9.90;79.64;100333.73;104772;1288;108772;-83
2022/10/15 00:33:50;;;;;;;47.00;33.40;;;;;;;9.84;79.84;100335.08;104762;1294;98730;-82
2022/10/15 00:36:21;;;;;;;49.30;33.00;;;;;;;9.82;80.14;100335.69;104744;1280;139008;-81
2022/10/15 00:38:50;;;;;;;46.20;32.70;;;;;;;9.82;80.16;100335.31;104848;1295;93231;-82
2022/10/15 00:41:23;;;;;;;46.50;33.80;;;;;;;9.81;80.20;100334.98;104750;1284;139940;-81
2022/10/15 00:43:53;;;;;;;47.60;32.20;;;;;;;9.77;80.16;100333.48;104844;1288;107472;-81
2022/10/15 00:46:24;;;;;;;46.90;33.10;;;;;;;9.73;80.22;100328.27;104849;1295;98560;-82
2022/10/15 00:48:57;;;;;;;47.70;33.00;;;;;;;9.70;80.39;100324.27;104652;1288;139959;-81
2022/10/15 00:51:30;;;;;;;45.60;32.80;;;;;;;9.68;80.53;100325.37;104863;1290;93240;-81
2022/10/15 00:53:59;;;;;;;47.30;34.00;;;;;;;9.64;80.59;100323.51;104604;1295;140459;-80
2022/10/15 00:56:29;;;;;;;45.70;32.70;;;;;;;9.60;80.83;100320.77;104862;1287;110423;-82
2022/10/15 00:58:58;;;;;;;46.30;33.50;;;;;;;9.57;80.79;100322.09;104607;1293;140524;-81
2022/10/15 01:01:26;;;;;;;49.30;33.20;;;;;;;9.54;81.01;100322.33;104862;1295;108933;-85
2022/10/15 01:03:54;;;;;;;46.60;34.30;;;;;;;9.51;80.93;100320.27;104933;1296;93142;-86
2022/10/15 01:06:23;;;;;;;49.50;34.60;;;;;;;9.47;81.16;100317.34;104862;1280;140141;-84
2022/10/15 01:08:51;;;;;;;45.00;32.40;;;;;;;9.45;81.18;100316.87;104897;1290;111771;-86
2022/10/15 01:11:48;;;;;;;47.80;33.50;;;;;;;9.42;81.34;100315.69;104860;1286;140723;-86
2022/10/15 01:14:39;;;;;;;49.00;34.00;;;;;;;9.40;81.58;100314.32;104683;1289;109009;-86
2022/10/15 01:17:20;;;;;;;48.40;34.80;;;;;;;9.36;81.64;100316.36;104813;1297;141038;-86
2022/10/15 01:20:00;;;;;;;47.20;34.50;;;;;;;9.32;81.64;100314.86;104784;1287;93211;-86
2022/10/15 01:22:54;;;;;;;48.70;34.50;;;;;;;9.29;81.74;100314.92;104899;1285;111646;-88
2022/10/15 01:25:40;;;;;;;49.20;34.40;;;;;;;9.29;81.63;100313.33;104946;1295;98502;-86
2022/10/15 01:28:39;;;;;;;46.90;32.50;;;;;;;9.30;81.57;100311.17;104789;1299;107927;-85
2022/10/15 01:31:28;;;;;;;46.90;32.90;;;;;;;9.32;81.43;100310.24;104809;1295;140041;-86
2022/10/15 01:34:25;;;;;;;47.30;33.30;;;;;;;9.28;81.48;100304.67;104941;1294;93207;-83
2022/10/15 01:37:08;;;;;;;47.10;33.40;;;;;;;9.24;81.44;100301.95;104719;1280;140750;-84
2022/10/15 01:39:45;;;;;;;46.40;33.30;;;;;;;9.21;81.54;100300.56;104878;1295;99496;-85
2022/10/15 01:42:19;;;;;;;46.10;33.00;;;;;;;9.19;81.73;100303.27;104801;1291;140433;-85
2022/10/15 01:44:52;;;;;;;48.20;33.30;;;;;;;9.18;81.58;100302.23;104880;1297;92891;-85
2022/10/15 01:47:47;;;;;;;49.50;33.90;;;;;;;9.17;81.68;100301.34;104728;1296;140036;-86
2022/10/15 01:50:22;;;;;;;47.70;33.80;;;;;;;9.21;81.69;100299.86;104772;1297;109785;-86
2022/10/15 01:52:52;;;;;;;48.10;35.30;;;;;;;9.26;81.46;100297.27;104839;1291;138301;-86
2022/10/15 01:55:22;;;;;;;46.40;33.10;;;;;;;9.30;81.30;100298.95;104909;1296;108463;-87
2022/10/15 01:57:51;;;;;;;48.40;33.10;;;;;;;9.40;81.28;100303.16;104806;1294;93433;-87
2022/10/15 02:00:19;;;;;;;45.20;32.90;;;;;;;9.40;80.38;100298.19;104708;1290;139496;-87
2022/10/15 02:02:49;;;;;;;46.40;31.90;;;;;;;9.32;80.45;100294.47;104907;1295;108114;-86
2022/10/15 02:05:28;;;;;;;44.10;32.30;;;;;;;9.28;80.53;100288.71;104828;1294;141020;-86
2022/10/15 02:08:37;;;;;;;47.10;32.60;;;;;;;9.25;80.56;100282.40;104949;1295;108899;-85
2022/10/15 02:11:09;;;;;;;48.60;32.50;;;;;;;9.20;80.69;100279.70;104321;1294;140369;-85
2022/10/15 02:14:07;;;;;;;47.30;33.30;;;;;;;9.17;80.76;100281.87;104996;1287;93587;-86
2022/10/15 02:17:00;;;;;;;47.20;32.50;;;;;;;9.15;81.22;100277.14;104824;1288;107549;-85
2022/10/15 02:19:35;;;;;;;49.10;32.50;;;;;;;9.15;81.21;100276.96;104837;1287;98259;-87
2022/10/15 02:22:10;;;;;;;48.10;33.30;;;;;;;9.10;81.43;100275.81;104930;1284;107200;-86
2022/10/15 02:25:16;;;;;;;48.60;33.00;;;;;;;9.07;81.74;100273.78;104815;1290;139912;-86
2022/10/15 02:27:49;;;;;;;48.10;33.00;;;;;;;9.03;81.91;100271.92;103987;1298;92951;-85
2022/10/15 02:30:18;;;;;;;47.30;33.10;;;;;;;9.00;82.06;100270.73;104680;1290;140007;-85
2022/10/15 02:32:51;;;;;;;47.40;34.30;;;;;;;8.97;82.21;100266.90;104792;1296;99391;-89
2022/10/15 02:35:22;;;;;;;49.10;33.50;;;;;;;8.95;82.34;100265.89;104813;1295;139617;-86
2022/10/15 02:37:53;;;;;;;46.80;33.60;;;;;;;8.94;82.65;100262.55;104902;1294;93292;-87
2022/10/15 02:40:26;;;;;;;49.30;33.90;;;;;;;8.91;82.60;100259.41;104852;1297;93154;-90
2022/10/15 02:42:55;;;;;;;48.90;33.90;;;;;;;8.91;82.67;100257.65;104642;1291;139676;-87
2022/10/15 02:45:22;;;;;;;48.10;34.40;;;;;;;8.92;82.83;100267.05;104917;1288;99131;-87
2022/10/15 02:47:50;;;;;;;49.10;34.20;;;;;;;8.93;82.98;100261.52;104799;1293;140920;-87
2022/10/15 02:50:18;;;;;;;50.40;34.60;;;;;;;8.95;82.75;100258.28;104817;1288;93080;-89
2022/10/15 02:52:46;;;;;;;46.50;33.10;;;;;;;8.95;82.74;100253.50;104782;1297;93989;-88
2022/10/15 02:55:14;;;;;;;50.10;34.20;;;;;;;8.96;82.89;100258.96;104709;1294;137315;-89
2022/10/15 02:57:41;;;;;;;48.70;34.50;;;;;;;8.97;82.79;100255.40;104811;1280;98043;-89
2022/10/15 03:00:10;;;;;;;48.10;34.30;;;;;;;8.99;82.84;100262.98;104827;1288;140528;-91
2022/10/15 03:02:38;;;;;;;50.60;34.20;;;;;;;8.99;82.82;100258.36;104749;1299;93298;-89
2022/10/15 03:05:06;;;;;;;49.20;34.50;;;;;;;9.04;82.87;100259.33;104711;1295;139261;-89
2022/10/15 03:07:35;;;;;;;50.70;35.20;;;;;;;9.07;82.42;100255.72;104906;1288;107428;-91
2022/10/15 03:10:03;;;;;;;46.60;33.60;;;;;;;9.06;82.23;100253.63;104840;1296;98432;-91
2022/10/15 03:12:32;;;;;;;46.20;33.90;;;;;;;9.03;82.36;100249.41;104758;1290;141083;-89
2022/10/15 03:15:00;;;;;;;46.80;33.00;;;;;;;9.03;82.40;100254.04;104778;1298;93067;-90
2022/10/15 03:17:28;;;;;;;48.10;33.10;;;;;;;9.02;82.21;100254.23;104673;1288;141302;-87
2022/10/15 03:19:55;;;;;;;48.00;33.90;;;;;;;9.06;82.45;100255.20;104741;1291;107856;-87
2022/10/15 03:22:23;;;;;;;47.00;33.90;;;;;;;9.07;82.03;100253.77;104790;1295;99457;-87
2022/10/15 03:24:52;;;;;;;46.90;33.50;;;;;;;9.06;81.98;100255.21;104611;1284;138786;-87
2022/10/15 03:27:24;;;;;;;48.80;33.30;;;;;;;9.03;81.88;100256.66;104707;1291;93845;-87
2022/10/15 03:29:53;;;;;;;47.50;33.20;;;;;;;9.02;81.90;100251.77;104740;1281;140740;-87
2022/10/15 03:32:21;;;;;;;45.60;31.90;;;;;;;9.01;81.79;100253.89;104773;1295;108834;-87
2022/10/15 03:34:49;;;;;;;47.10;33.60;;;;;;;8.97;81.85;100250.62;104629;1288;140417;-87
2022/10/15 03:37:17;;;;;;;46.80;32.80;;;;;;;8.93;81.96;100246.10;104752;1287;107352;-86
2022/10/15 03:39:45;;;;;;;45.40;31.50;;;;;;;8.88;82.25;100243.20;104731;1291;93319;-91
2022/10/15 03:42:13;;;;;;;46.00;33.00;;;;;;;8.84;82.46;100254.26;104800;1287;141286;-87
2022/10/15 03:44:47;;;;;;;49.50;32.30;;;;;;;8.80;82.74;100253.81;104905;1289;108741;-90
2022/10/15 03:47:17;;;;;;;46.70;32.50;;;;;;;8.78;82.92;100252.80;104729;1289;139503;-89
2022/10/15 03:49:46;;;;;;;49.20;33.50;;;;;;;8.77;83.03;100247.35;104803;1286;106470;-87
2022/10/15 03:52:15;;;;;;;49.60;32.30;;;;;;;8.75;83.19;100242.80;104747;1304;93175;-89
2022/10/15 03:54:43;;;;;;;47.90;33.30;;;;;;;8.74;83.41;100234.33;104711;1289;139429;-89
2022/10/15 03:57:11;;;;;;;47.90;32.00;;;;;;;8.74;83.62;100230.77;104897;1285;107501;-93
2022/10/15 03:59:44;;;;;;;47.60;33.40;;;;;;;8.75;83.66;100228.80;104799;1288;140883;-95
2022/10/15 04:02:13;;;;;;;49.20;34.10;;;;;;;8.77;83.66;100225.57;104875;1287;108365;-87
2022/10/15 04:04:41;;;;;;;48.20;32.50;;;;;;;8.77;83.88;100225.04;104941;1287;93333;-89
2022/10/15 04:07:09;;;;;;;45.50;32.00;;;;;;;8.79;83.86;100227.14;104664;1289;139988;-91
2022/10/15 04:09:38;;;;;;;46.10;30.80;;;;;;;8.79;83.87;100221.79;104818;1293;108693;-88
2022/10/15 04:12:24;;;;;;;51.70;34.70;;;;;;;8.81;83.89;100220.70;104860;1293;139818;-89
2022/10/15 04:14:52;;;;;;;51.70;35.30;;;;;;;8.83;84.01;100219.05;104922;1281;108510;-89
2022/10/15 04:17:21;;;;;;;48.70;32.70;;;;;;;8.88;83.90;100222.67;104723;1288;139509;-89
2022/10/15 04:19:49;;;;;;;48.40;34.30;;;;;;;8.91;83.75;100217.30;104888;1294;92864;-91
2022/10/15 04:22:17;;;;;;;45.50;30.50;;;;;;;8.94;83.83;100216.87;104838;1290;106660;-92
2022/10/15 04:24:48;;;;;;;48.60;33.70;;;;;;;8.93;83.80;100213.70;104755;1295;139695;-89
2022/10/15 04:27:24;;;;;;;47.60;32.70;;;;;;;8.93;83.86;100213.52;104840;1296;107152;-93
2022/10/15 04:29:55;;;;;;;44.60;31.40;;;;;;;8.94;83.81;100214.92;104700;1298;140891;-91
2022/10/15 04:32:23;;;;;;;48.60;33.90;;;;;;;8.94;83.72;100215.09;104774;1290;93020;-92
2022/10/15 04:34:51;;;;;;;46.70;31.20;;;;;;;8.94;83.68;100217.58;104845;1284;138690;-88
2022/10/15 04:37:24;;;;;;;44.50;31.20;;;;;;;8.95;83.76;100220.05;104824;1288;99548;-91
2022/10/15 04:39:53;;;;;;;47.70;33.30;;;;;;;8.95;83.65;100213.85;104798;1284;108629;-89
2022/10/15 04:42:21;;;;;;;43.70;30.40;;;;;;;8.95;83.59;100216.30;104750;1295;139849;-90
2022/10/15 04:44:48;;;;;;;46.10;32.50;;;;;;;8.96;83.59;100220.00;104935;1293;93252;-91
2022/10/15 04:47:16;;;;;;;46.00;31.20;;;;;;;8.98;83.48;100219.78;104856;1287;140519;-92
2022/10/15 04:49:48;;;;;;;45.40;31.90;;;;;;;9.01;83.33;100215.30;104806;1294;96425;-91
2022/10/15 04:52:42;;;;;;;44.10;31.80;;;;;;;9.02;83.31;100214.02;104680;1285;107772;-91
2022/10/15 04:55:11;;;;;;;42.60;30.50;;;;;;;9.03;83.33;100210.65;104708;1290;139485;-92
2022/10/15 04:57:39;;;;;;;41.50;30.30;;;;;;;9.02;83.37;100214.21;104807;1305;92872;-89
2022/10/15 05:00:07;;;;;;;46.40;31.00;;;;;;;9.02;83.54;100211.52;104690;1281;142293;-89
2022/10/15 05:02:54;;;;;;;46.40;31.60;;;;;;;9.04;83.57;100211.52;105004;1290;98440;-89
2022/10/15 05:05:40;;;;;;;42.40;30.80;;;;;;;9.08;83.63;100211.59;104857;1288;141470;-90
2022/10/15 05:08:08;;;;;;;44.10;30.20;;;;;;;9.11;83.61;100212.76;104944;1290;93273;-87
2022/10/15 05:11:02;;;;;;;45.90;30.70;;;;;;;9.15;83.53;100213.56;104734;1281;140584;-89
2022/10/15 05:13:31;;;;;;;44.60;31.80;;;;;;;9.17;83.53;100213.69;104849;1286;107215;-90
2022/10/15 05:16:14;;;;;;;42.40;31.30;;;;;;;9.20;83.56;100215.04;104823;1297;98327;-92
2022/10/15 05:18:43;;;;;;;45.60;32.20;;;;;;;9.23;83.42;100212.66;104844;1290;141879;-88
2022/10/15 05:21:12;;;;;;;46.90;31.80;;;;;;;9.27;83.37;100214.70;104800;1290;92917;-90
2022/10/15 05:23:40;;;;;;;42.80;29.70;;;;;;;9.31;83.19;100216.01;104760;1288;141587;-88
2022/10/15 05:26:18;;;;;;;44.80;32.20;;;;;;;9.33;83.17;100215.95;104833;1291;108971;-90
2022/10/15 05:28:47;;;;;;;42.10;30.30;;;;;;;9.36;83.26;100216.95;104843;1288;98553;-92
2022/10/15 05:31:25;;;;;;;45.30;31.90;;;;;;;9.38;83.14;100218.50;104829;1288;108831;-91
2022/10/15 05:34:06;;;;;;;45.70;32.20;;;;;;;9.42;83.13;100219.46;104896;1286;93237;-89
2022/10/15 05:36:37;;;;;;;45.70;32.20;;;;;;;9.47;83.25;100221.64;104756;1294;139213;-90
2022/10/15 05:39:09;;;;;;;44.80;30.90;;;;;;;9.53;83.10;100230.01;104859;1293;108661;-88
2022/10/15 05:41:40;;;;;;;45.20;30.70;;;;;;;9.57;82.82;100230.44;104843;1295;138906;-89
2022/10/15 05:44:08;;;;;;;43.30;31.20;;;;;;;9.59;82.72;100229.86;104907;1288;108186;-93
2022/10/15 05:46:37;;;;;;;45.00;31.40;;;;;;;9.61;82.87;100228.92;104905;1297;92951;-93
2022/10/15 05:49:05;;;;;;;42.00;29.90;;;;;;;9.63;82.84;100224.97;104902;1294;140315;-92
2022/10/15 05:51:43;;;;;;;45.40;31.00;;;;;;;9.69;82.78;100224.11;104913;1287;108451;-92
2022/10/15 05:54:16;;;;;;;44.80;31.30;;;;;;;9.76;82.75;100222.88;104812;1288;140147;-88
2022/10/15 05:56:44;;;;;;;44.30;31.00;;;;;;;9.81;82.72;100221.15;105006;1285;107814;-86
2022/10/15 05:59:12;;;;;;;44.30;30.90;;;;;;;9.85;82.59;100224.40;104929;1290;141608;-90
2022/10/15 06:01:39;;;;;;;45.70;30.30;;;;;;;9.90;82.43;100223.41;104986;1290;93294;-89
2022/10/15 06:04:08;;;;;;;47.30;30.30;;;;;;;9.95;82.39;100223.64;104973;1290;109727;-89
2022/10/15 06:06:36;;;;;;;40.80;30.00;;;;;;;10.00;82.39;100229.17;104806;1287;139807;-89
2022/10/15 06:09:04;;;;;;;40.60;29.20;;;;;;;10.06;82.46;100228.65;104926;1294;107535;-89
2022/10/15 06:11:35;;;;;;;42.60;30.80;;;;;;;10.11;82.34;100228.69;104813;1287;140734;-89
2022/10/15 06:14:03;;;;;;;41.00;28.90;;;;;;;10.15;82.27;100231.41;104987;1295;92847;-90
2022/10/15 06:16:32;;;;;;;43.60;31.30;;;;;;;10.21;82.24;100227.19;104956;1295;107411;-87
2022/10/15 06:18:59;;;;;;;44.30;30.70;;;;;;;10.27;82.21;100231.64;104878;1290;141320;-88
2022/10/15 06:21:28;;;;;;;42.50;30.50;;;;;;;10.36;82.25;100230.52;104929;1290;106409;-89
2022/10/15 06:23:56;;;;;;;43.20;30.10;;;;;;;10.45;82.14;100232.73;104866;1281;140741;-83
2022/10/15 06:26:23;;;;;;;43.30;29.20;;;;;;;10.53;81.90;100234.66;104969;1295;92853;-90
2022/10/15 06:28:51;;;;;;;42.00;30.70;;;;;;;10.60;81.77;100233.41;104962;1297;110440;-89
2022/10/15 06:31:19;;;;;;;41.20;29.40;;;;;;;10.66;81.64;100240.32;104870;1280;138098;-90
2022/10/15 06:33:46;;;;;;;43.30;30.60;;;;;;;10.67;81.30;100236.38;105009;1282;109518;-88
2022/10/15 06:36:14;;;;;;;41.90;29.90;;;;;;;10.70;81.33;100240.56;104902;1281;141362;-92
2022/10/15 06:38:45;;;;;;;40.20;28.80;;;;;;;10.74;81.37;100241.16;105008;1294;92798;-90
2022/10/15 06:41:12;;;;;;;42.70;29.80;;;;;;;10.77;81.43;100244.44;104754;1290;138618;-91
2022/10/15 06:43:40;;;;;;;43.10;30.50;;;;;;;10.85;81.46;100245.63;105027;1297;99928;-91
2022/10/15 06:46:08;;;;;;;44.70;30.70;;;;;;;10.94;81.33;100249.64;104884;1291;108696;-87
2022/10/15 06:48:36;;;;;;;42.00;29.40;;;;;;;11.02;81.19;100252.74;104845;1302;139592;-91
2022/10/15 06:51:04;;;;;;;42.20;30.90;;;;;;;11.11;81.04;100250.52;105003;1293;93111;-87
2022/10/15 06:53:32;;;;;;;42.30;29.90;;;;;;;11.18;80.83;100251.71;104854;1293;142075;-90
2022/10/15 06:56:03;;;;;;;39.90;29.60;;;;;;;11.27;80.67;100255.17;104997;1295;99578;-87
2022/10/15 06:58:35;;;;;;;40.40;29.50;;;;;;;11.34;80.41;100254.78;104936;1288;109121;-90
2022/10/15 07:01:05;;;;;;;41.50;29.10;;;;;;;11.43;80.29;100254.86;104725;1288;139069;-87
2022/10/15 07:03:33;;;;;;;42.00;29.50;;;;;;;11.51;80.05;100257.97;104753;1280;93176;-85
2022/10/15 07:06:03;;;;;;;45.50;32.90;;;;;;;11.62;79.88;100256.91;104734;1281;140153;-89
2022/10/15 07:08:31;;;;;;;40.80;28.80;;;;;;;11.70;79.56;100260.20;104956;1287;99306;-89
2022/10/15 07:11:03;;;;;;;39.50;27.90;;;;;;;11.78;79.24;100256.93;104757;1288;139967;-82
2022/10/15 07:13:31;;;;;;;37.90;26.70;;;;;;;11.83;78.52;100257.98;104893;1287;93228;-88
2022/10/15 07:16:08;;;;;;;36.80;26.20;;;;;;;11.85;78.56;100254.34;104930;1294;93193;-90
2022/10/15 07:18:36;;;;;;;36.60;26.40;;;;;;;11.89;78.31;100253.86;104849;1294;140155;-85
2022/10/15 07:21:06;;;;;;;38.60;28.10;;;;;;;11.96;78.24;100256.34;104873;1294;98314;-89
2022/10/15 07:23:34;;;;;;;38.00;28.10;;;;;;;12.05;78.48;100254.23;104803;1287;141481;-85
2022/10/15 07:26:02;;;;;;;36.60;26.70;;;;;;;12.16;78.03;100257.05;104847;1280;93260;-85
2022/10/15 07:28:30;;;;;;;37.50;27.30;;;;;;;12.27;77.49;100255.08;104885;1294;94298;-90
2022/10/15 07:31:02;;;;;;;37.40;26.50;;;;;;;12.33;77.11;100251.83;104801;1286;140907;-89
2022/10/15 07:33:33;;;;;;;38.60;27.70;;;;;;;12.38;77.09;100252.73;104884;1284;99523;-87
2022/10/15 07:36:06;;;;;;;35.80;26.90;;;;;;;12.45;77.21;100247.83;104775;1280;140485;-86
2022/10/15 07:38:34;;;;;;;34.90;25.70;;;;;;;12.50;76.93;100248.20;104812;1293;94337;-88
2022/10/15 07:41:03;;;;;;;34.00;25.40;;;;;;;12.53;76.92;100241.84;104809;1298;141138;-87
2022/10/15 07:43:33;;;;;;;32.70;23.20;;;;;;;12.60;76.61;100244.27;104971;1293;108099;-88
2022/10/15 07:46:01;;;;;;;34.10;24.40;;;;;;;12.67;76.27;100245.98;104981;1295;99720;-91
2022/10/15 07:48:29;;;;;;;33.00;25.00;;;;;;;12.75;76.15;100246.73;104847;1297;139201;-88
2022/10/15 07:51:02;;;;;;;33.80;24.20;;;;;;;12.87;76.17;100247.52;104974;1295;93185;-91
2022/10/15 07:53:31;;;;;;;33.70;25.20;;;;;;;13.00;75.86;100245.59;104828;1288;140391;-87
2022/10/15 07:56:06;;;;;;;32.10;23.80;;;;;;;13.13;75.86;100242.63;104960;1295;108073;-88
2022/10/15 07:58:36;;;;;;;32.20;23.70;;;;;;;13.25;75.33;100238.73;105003;1294;99767;-85
2022/10/15 08:01:06;;;;;;;31.30;23.10;;;;;;;13.37;74.91;100240.61;104804;1295;139816;-88
2022/10/15 08:03:35;;;;;;;30.10;21.90;;;;;;;13.44;74.19;100234.47;104938;1295;92804;-90
2022/10/15 08:06:04;;;;;;;33.30;23.40;;;;;;;13.49;73.94;100234.05;104729;1286;141797;-90
2022/10/15 08:08:33;;;;;;;30.10;21.90;;;;;;;13.57;74.21;100239.13;104896;1282;109448;-87
2022/10/15 08:11:06;;;;;;;30.60;22.10;;;;;;;13.65;73.96;100236.45;104765;1287;140780;-88
2022/10/15 08:13:34;;;;;;;31.20;23.10;;;;;;;13.74;73.43;100237.31;104948;1290;108781;-92
2022/10/15 08:16:02;;;;;;;30.40;22.30;;;;;;;13.84;73.02;100238.49;104889;1288;93145;-88
2022/10/15 08:18:30;;;;;;;30.40;22.20;;;;;;;13.90;72.58;100235.39;104765;1280;137809;-86
2022/10/15 08:20:59;;;;;;;30.90;22.10;;;;;;;13.98;72.67;100233.96;104901;1288;109713;-85
2022/10/15 08:23:27;;;;;;;29.20;21.60;;;;;;;14.11;72.67;100234.68;104785;1288;138516;-89
2022/10/15 08:25:57;;;;;;;30.00;20.90;;;;;;;14.18;71.81;100235.96;104757;1297;108517;-94
2022/10/15 08:28:28;;;;;;;29.40;21.10;;;;;;;14.16;71.98;100237.15;104873;1286;93124;-90
2022/10/15 08:30:57;;;;;;;33.10;24.60;;;;;;;14.20;72.07;100237.14;104922;1293;141214;-91
2022/10/15 08:33:33;;;;;;;27.20;20.20;;;;;;;14.37;71.71;100238.17;104937;1288;108607;-86
2022/10/15 08:36:04;;;;;;;42.80;32.40;;;;;;;14.52;71.20;100235.20;104786;1277;139171;-90
2022/10/15 08:38:34;;;;;;;31.40;22.50;;;;;;;14.67;70.89;100234.89;104951;1295;109050;-92
2022/10/15 08:41:15;;;;;;;29.20;21.00;;;;;;;14.79;70.75;100226.65;104918;1284;139548;-86
2022/10/15 08:43:45;;;;;;;27.30;20.20;;;;;;;14.91;70.27;100220.95;104811;1291;93820;-89
2022/10/15 08:46:22;;;;;;;29.20;20.40;;;;;;;15.05;69.56;100222.23;104934;1294;108076;-87
2022/10/15 08:48:54;;;;;;;28.00;20.40;;;;;;;15.17;68.84;100221.46;104824;1288;140334;-88
2022/10/15 08:51:27;;;;;;;28.10;20.40;;;;;;;15.28;68.34;100220.57;104943;1294;106483;-90
2022/10/15 08:54:05;;;;;;;28.70;20.50;;;;;;;15.39;67.99;100216.46;104840;1291;139413;-87
2022/10/15 08:56:42;;;;;;;28.70;21.10;;;;;;;15.42;67.84;100212.05;104981;1288;93257;-88
2022/10/15 08:59:37;;;;;;;27.80;20.90;;;;;;;15.56;67.39;100209.58;104819;1286;140568;-88
2022/10/15 09:02:20;;;;;;;28.60;20.70;;;;;;;15.74;67.14;100213.29;104975;1287;97256;-90
2022/10/15 09:05:14;;;;;;;27.70;20.20;;;;;;;15.97;66.96;100216.48;104931;1294;107949;-88
2022/10/15 09:07:48;;;;;;;30.80;22.50;;;;;;;16.14;65.97;100209.48;104871;1294;92789;-84
2022/10/15 09:10:37;;;;;;;28.00;20.10;;;;;;;16.17;65.44;100207.89;104911;1285;93591;-86
2022/10/15 09:13:26;;;;;;;27.70;20.40;;;;;;;16.14;65.07;100207.86;104799;1298;140107;-88
2022/10/15 09:16:09;;;;;;;28.70;21.00;;;;;;;16.21;65.23;100210.89;104874;1293;99462;-87
2022/10/15 09:18:43;;;;;;;27.20;19.20;;;;;;;16.49;64.49;100215.52;104802;1293;139439;-96
2022/10/15 09:21:12;;;;;;;27.40;21.00;;;;;;;16.56;64.28;100211.38;105034;1288;94334;-92
2022/10/15 09:23:43;;;;;;;26.20;18.80;;;;;;;16.56;64.60;100213.55;104724;1289;140480;-90
2022/10/15 09:26:10;;;;;;;27.20;18.80;;;;;;;16.58;64.27;100216.48;104842;1279;109836;-93
2022/10/15 09:29:06;;;;;;;26.90;21.30;;;;;;;16.67;64.17;100216.73;105010;1289;98574;-89
2022/10/15 09:31:44;;;;;;;25.80;19.20;;;;;;;16.67;63.97;100222.25;104964;1288;107797;-93
2022/10/15 09:34:22;;;;;;;26.20;19.00;;;;;;;16.56;64.07;100221.61;104980;1296;93197;-90
2022/10/15 09:36:55;;;;;;;28.60;19.70;;;;;;;16.49;64.78;100218.74;104889;1294;139283;-92
2022/10/15 09:39:58;;;;;;;28.30;20.20;;;;;;;16.53;65.17;100218.01;104912;1296;108210;-87
2022/10/15 09:42:30;;;;;;;25.60;18.40;;;;;;;16.60;64.87;100217.77;104907;1293;141362;-89
2022/10/15 09:45:02;;;;;;;25.20;19.50;;;;;;;16.57;64.89;100215.30;104948;1296;106129;-93
2022/10/15 09:47:33;;;;;;;24.90;17.60;;;;;;;16.49;65.02;100216.61;104825;1293;139532;-87
2022/10/15 09:50:07;;;;;;;24.90;18.90;;;;;;;16.41;64.85;100214.35;104852;1295;93096;-90
2022/10/15 09:52:47;;;;;;;22.10;16.70;;;;;;;16.31;64.85;100217.18;104939;1288;109580;-84
2022/10/15 09:55:37;;;;;;;23.80;18.10;;;;;;;16.23;64.82;100217.10;104825;1298;139982;-85
2022/10/15 09:58:14;;;;;;;25.20;18.80;;;;;;;16.22;65.41;100216.39;104841;1297;107987;-90
2022/10/15 10:01:04;;;;;;;24.30;17.30;;;;;;;16.29;65.05;100215.88;104905;1288;139799;-88
2022/10/15 10:03:39;;;;;;;24.30;17.80;;;;;;;16.32;64.91;100212.48;104946;1296;93241;-93
2022/10/15 10:06:10;;;;;;;24.10;17.70;;;;;;;16.41;64.91;100206.28;104982;1287;140539;-94
2022/10/15 10:08:56;;;;;;;22.50;16.90;;;;;;;16.56;64.69;100207.59;105053;1294;98519;-91
2022/10/15 10:11:26;;;;;;;25.20;17.10;;;;;;;16.80;64.28;100197.16;104779;1287;140341;-81
2022/10/15 10:13:56;;;;;;;23.40;17.10;;;;;;;17.45;62.47;100197.45;104931;1293;93654;-90
2022/10/15 10:16:25;;;;;;;21.20;15.90;;;;;;;18.24;60.18;100195.69;104898;1290;92951;-94
2022/10/15 10:19:16;;;;;;;20.40;14.50;;;;;;;18.88;58.29;100195.10;104832;1290;140823;-92
2022/10/15 10:21:45;;;;;;;23.00;16.20;;;;;;;18.87;57.55;100190.65;104947;1293;98411;-90
2022/10/15 10:24:33;;;;;;;22.20;16.50;;;;;;;18.60;58.33;100192.02;104750;1303;140308;-89
2022/10/15 10:27:01;;;;;;;22.50;17.10;;;;;;;18.44;59.05;100189.94;104877;1301;93414;-90
2022/10/15 10:29:40;;;;;;;22.20;15.80;;;;;;;18.36;59.23;100189.03;104819;1292;140885;-94
2022/10/15 10:32:11;;;;;;;20.90;15.70;;;;;;;18.24;58.96;100186.30;104923;1301;108367;-88
2022/10/15 10:34:42;;;;;;;20.50;14.40;;;;;;;18.16;59.40;100185.55;104898;1295;99873;-92
2022/10/15 10:37:13;;;;;;;21.40;15.70;;;;;;;18.12;59.68;100185.25;104636;1296;141065;-87
2022/10/15 10:39:42;;;;;;;21.00;15.80;;;;;;;18.06;59.16;100185.08;104895;1293;93252;-87
2022/10/15 10:42:33;;;;;;;24.10;16.60;;;;;;;18.04;60.13;100182.53;104788;1295;141561;-90
2022/10/15 10:45:15;;;;;;;20.90;15.10;;;;;;;18.01;59.71;100185.58;104830;1297;107556;-87
2022/10/15 10:47:46;;;;;;;21.00;15.50;;;;;;;17.96;59.16;100180.69;104806;1287;140827;-94
2022/10/15 10:50:39;;;;;;;20.00;13.90;;;;;;;17.88;59.79;100180.39;104904;1294;108841;-91
2022/10/15 10:53:21;;;;;;;21.10;14.80;;;;;;;17.80;59.46;100180.70;104873;1295;138990;-86
2022/10/15 10:55:51;;;;;;;22.80;15.30;;;;;;;17.73;60.01;100180.74;104872;1301;92878;-94
2022/10/15 10:58:22;;;;;;;20.10;14.80;;;;;;;17.71;60.38;100178.52;104881;1297;108743;-92
2022/10/15 11:00:56;;;;;;;20.10;14.80;;;;;;;17.74;60.45;100172.09;104694;1289;140329;-91
2022/10/15 11:03:39;;;;;;;20.40;14.90;;;;;;;17.75;60.15;100171.33;104741;1292;109177;-92
2022/10/15 11:06:22;;;;;;;19.90;14.50;;;;;;;17.77;60.41;100169.20;104652;1297;140573;-94
2022/10/15 11:09:13;;;;;;;18.70;14.30;;;;;;;17.83;60.36;100166.67;104809;1304;93326;-88
2022/10/15 11:11:42;;;;;;;19.70;14.70;;;;;;;17.88;60.52;100169.25;104719;1297;139923;-92
2022/10/15 11:14:17;;;;;;;19.00;14.10;;;;;;;17.91;60.10;100171.63;104804;1297;99399;-94
2022/10/15 11:17:01;;;;;;;20.10;14.60;;;;;;;17.88;59.96;100166.52;104811;1291;106397;-93
2022/10/15 11:19:46;;;;;;;19.20;15.20;;;;;;;17.86;59.58;100171.69;104677;1295;138911;-95
2022/10/15 11:23:01;;;;;;;19.70;14.80;;;;;;;17.85;59.95;100173.41;105031;1296;92820;-96
2022/10/15 11:25:50;;;;;;;19.50;15.00;;;;;;;17.87;59.53;100176.69;104192;1302;140217;-88
2022/10/15 11:28:48;;;;;;;17.40;13.50;;;;;;;17.92;59.39;100179.30;104570;1299;98455;-92